Terminal Aerodrome Forecast
Issued by NWS

Home | Current Version | Previous Version | Graphics & Text | Print | Product List | Glossary On
Versions: 1 2 3 4 5 6 7 8 9 10 11 12 13 14 15 16 17 18 19 20 21 22 23 24
000
FTUS45 KGGW 301720
TAFGDV
TAF
KGDV 301720Z 3018/0118 21010KT P6SM FEW140
     FM010300 25005KT P6SM VCSH BKN070
     FM010900 28011KT P6SM BKN090
     FM011500 31019G27KT P6SM VCSH BKN035=

USA.gov is the U.S. government's official web portal to all federal, state and local government web resources and services.